createdAt,value
2022-09-22T00:02:17.129Z,74.36
2022-09-22T00:04:47.882Z,74.42
2022-09-22T00:07:20.246Z,74.55
2022-09-22T00:09:51.493Z,74.13
2022-09-22T00:12:22.069Z,74.17
2022-09-22T00:14:52.780Z,73.83
2022-09-22T00:17:25.038Z,73.84
2022-09-22T00:19:55.777Z,73.80
2022-09-22T00:22:27.318Z,73.50
2022-09-22T00:24:57.982Z,73.60
2022-09-22T00:27:29.287Z,73.86
2022-09-22T00:30:00.612Z,73.69
2022-09-22T00:32:32.860Z,73.87
2022-09-22T00:35:03.604Z,73.27
2022-09-22T00:37:34.703Z,73.19
2022-09-22T00:40:06.378Z,73.23
2022-09-22T00:42:37.417Z,73.18
2022-09-22T00:45:08.963Z,73.37
2022-09-22T00:47:43.613Z,73.65
2022-09-22T00:50:22.492Z,73.88
2022-09-22T00:53:00.339Z,73.86
2022-09-22T00:55:43.751Z,73.95
2022-09-22T00:58:19.006Z,74.30
2022-09-22T01:00:50.101Z,74.07
2022-09-22T01:03:29.732Z,73.89
2022-09-22T01:06:04.782Z,74.04
2022-09-22T01:08:37.094Z,73.87
2022-09-22T01:11:09.241Z,73.64
2022-09-22T01:13:48.778Z,73.95
2022-09-22T01:16:37.718Z,74.31
2022-09-22T01:19:08.490Z,74.36
2022-09-22T01:21:56.574Z,74.03
2022-09-22T01:25:10.629Z,74.04
2022-09-22T01:28:17.894Z,74.22
2022-09-22T01:31:00.562Z,73.83
2022-09-22T01:33:39.702Z,73.83
2022-09-22T01:36:49.794Z,73.93
2022-09-22T01:39:31.770Z,73.97
2022-09-22T01:42:27.755Z,73.75
2022-09-22T01:45:11.851Z,73.81
2022-09-22T01:47:58.472Z,73.30
2022-09-22T01:50:36.200Z,73.56
2022-09-22T01:53:13.344Z,73.60
2022-09-22T01:55:48.862Z,73.73
2022-09-22T01:58:35.171Z,73.83
2022-09-22T02:01:17.148Z,73.46
2022-09-22T02:03:54.010Z,73.35
2022-09-22T02:06:55.651Z,73.36
2022-09-22T02:09:28.057Z,73.89
2022-09-22T02:12:00.384Z,73.95
2022-09-22T02:14:31.782Z,74.01
2022-09-22T02:17:04.175Z,73.72
2022-09-22T02:19:41.282Z,73.50
2022-09-22T02:22:14.395Z,73.15
2022-09-22T02:24:46.378Z,73.60
2022-09-22T02:27:30.656Z,73.80
2022-09-22T02:30:04.050Z,73.10
2022-09-22T02:32:37.380Z,72.95
2022-09-22T02:35:10.619Z,72.42
2022-09-22T02:37:50.255Z,72.21
2022-09-22T02:40:36.288Z,72.13
2022-09-22T02:43:24.973Z,72.23
2022-09-22T02:46:08.144Z,72.51
2022-09-22T02:49:03.486Z,72.79
2022-09-22T02:51:34.997Z,72.68
2022-09-22T02:54:06.445Z,73.08
2022-09-22T02:56:37.862Z,72.98
2022-09-22T02:59:08.976Z,72.86
2022-09-22T03:01:40.571Z,72.51
2022-09-22T03:04:11.377Z,72.82
2022-09-22T03:06:42.094Z,72.58
2022-09-22T03:09:12.871Z,72.09
2022-09-22T03:11:43.842Z,72.91
2022-09-22T03:14:14.853Z,72.24
2022-09-22T03:16:45.859Z,72.17
2022-09-22T03:19:16.760Z,72.67
2022-09-22T03:21:47.772Z,73.31
2022-09-22T03:24:18.813Z,72.65
2022-09-22T03:26:49.646Z,72.16
2022-09-22T03:29:21.188Z,72.11
2022-09-22T03:31:52.115Z,72.46
2022-09-22T03:34:23.020Z,72.20
2022-09-22T03:36:54.191Z,72.71
2022-09-22T03:39:25.107Z,72.70
2022-09-22T03:41:55.947Z,72.82
2022-09-22T03:44:29.156Z,72.98
2022-09-22T03:46:59.893Z,73.00
2022-09-22T03:49:31.248Z,72.74
2022-09-22T03:52:01.944Z,73.05
2022-09-22T03:54:33.442Z,72.67
2022-09-22T03:57:04.136Z,72.60
2022-09-22T03:59:35.417Z,71.96
2022-09-22T04:02:07.165Z,72.37
2022-09-22T04:04:38.166Z,72.50
2022-09-22T04:07:08.998Z,72.46
2022-09-22T04:09:39.894Z,72.26
2022-09-22T04:12:11.450Z,71.96
2022-09-22T04:14:42.288Z,72.45
2022-09-22T04:17:13.600Z,72.34
2022-09-22T04:19:43.935Z,72.98
2022-09-22T04:22:14.509Z,72.91
2022-09-22T04:24:45.389Z,73.12
2022-09-22T04:27:19.965Z,73.75
2022-09-22T04:29:52.220Z,73.28
2022-09-22T04:32:23.043Z,73.45
2022-09-22T04:34:53.727Z,73.64
2022-09-22T04:37:24.312Z,73.58
2022-09-22T04:39:57.045Z,74.16
2022-09-22T04:42:27.924Z,73.30
2022-09-22T04:45:04.494Z,72.86
2022-09-22T04:47:36.220Z,72.60
2022-09-22T04:50:07.457Z,73.32
2022-09-22T04:52:38.193Z,72.87
2022-09-22T04:55:09.699Z,73.62
2022-09-22T04:57:40.686Z,73.57
2022-09-22T05:00:12.619Z,72.59
2022-09-22T05:02:43.484Z,72.63
2022-09-22T05:05:15.650Z,72.03
2022-09-22T05:07:48.924Z,72.07
2022-09-22T05:10:23.402Z,71.74
2022-09-22T05:12:56.232Z,72.69
2022-09-22T05:15:27.304Z,71.06
2022-09-22T05:17:58.318Z,71.42
2022-09-22T05:20:29.651Z,71.23
2022-09-22T05:23:01.689Z,70.91
2022-09-22T05:25:32.525Z,70.71
2022-09-22T05:28:03.443Z,70.70
2022-09-22T05:30:34.296Z,71.34
2022-09-22T05:33:05.069Z,71.39
2022-09-22T05:35:37.038Z,71.22
2022-09-22T05:38:08.007Z,70.94
2022-09-22T05:40:38.707Z,71.52
2022-09-22T05:43:09.453Z,70.86
2022-09-22T05:45:40.358Z,70.85
2022-09-22T05:48:11.403Z,70.64
2022-09-22T05:50:42.086Z,70.88
2022-09-22T05:53:14.066Z,71.27
2022-09-22T05:55:44.882Z,71.37
2022-09-22T05:58:16.226Z,71.15
2022-09-22T06:00:47.148Z,71.07
2022-09-22T06:03:17.839Z,71.33
2022-09-22T06:05:48.705Z,71.20
2022-09-22T06:08:20.158Z,71.04
2022-09-22T06:10:53.789Z,71.67
2022-09-22T06:13:24.576Z,71.52
2022-09-22T06:15:55.258Z,71.28
2022-09-22T06:18:27.972Z,71.15
2022-09-22T06:20:59.109Z,71.26
2022-09-22T06:23:30.133Z,71.35
2022-09-22T06:26:02.182Z,71.37
2022-09-22T06:28:32.877Z,70.94
2022-09-22T06:31:04.093Z,70.60
2022-09-22T06:33:35.044Z,70.66
2022-09-22T06:36:06.065Z,70.56
2022-09-22T06:38:36.813Z,70.22
2022-09-22T06:41:09.315Z,70.67
2022-09-22T06:43:40.523Z,70.22
2022-09-22T06:46:13.711Z,70.78
2022-09-22T06:48:44.564Z,70.79
2022-09-22T06:51:15.742Z,70.91
2022-09-22T06:53:51.675Z,71.14
2022-09-22T06:56:23.055Z,70.19
2022-09-22T06:59:09.524Z,70.58
2022-09-22T07:01:42.795Z,70.89
2022-09-22T07:04:15.026Z,70.69
2022-09-22T07:06:46.135Z,70.71
2022-09-22T07:09:16.811Z,69.89
2022-09-22T07:11:47.766Z,70.31
2022-09-22T07:14:18.535Z,70.00
2022-09-22T07:16:49.426Z,69.95
2022-09-22T07:19:20.276Z,69.91
2022-09-22T07:21:51.109Z,69.92
2022-09-22T07:24:22.188Z,70.35
2022-09-22T07:26:53.813Z,69.88
2022-09-22T07:29:24.559Z,69.71
2022-09-22T07:31:56.000Z,69.96
2022-09-22T07:34:26.792Z,70.11
2022-09-22T07:36:57.890Z,70.01
2022-09-22T07:39:28.543Z,69.93
2022-09-22T07:41:59.187Z,69.92
2022-09-22T07:44:48.486Z,70.41
2022-09-22T07:47:39.165Z,70.02
2022-09-22T07:50:10.384Z,69.18
2022-09-22T07:52:41.086Z,69.38
2022-09-22T07:55:12.423Z,69.31
2022-09-22T07:57:43.390Z,69.89
2022-09-22T08:00:15.039Z,69.69
2022-09-22T08:02:47.180Z,69.74
2022-09-22T08:05:18.963Z,69.89
2022-09-22T08:07:49.754Z,69.63
2022-09-22T08:10:22.178Z,69.82
2022-09-22T08:13:00.723Z,69.64
2022-09-22T08:15:31.647Z,69.84
2022-09-22T08:18:02.359Z,69.83
2022-09-22T08:20:33.359Z,70.22
2022-09-22T08:23:05.781Z,69.72
2022-09-22T08:25:37.493Z,70.08
2022-09-22T08:28:08.169Z,70.14
2022-09-22T08:30:39.292Z,70.03
2022-09-22T08:33:10.690Z,70.50
2022-09-22T08:35:41.837Z,70.53
2022-09-22T08:38:13.020Z,70.43
2022-09-22T08:40:46.221Z,69.80
2022-09-22T08:43:18.246Z,70.03
2022-09-22T08:45:50.451Z,70.51
2022-09-22T08:48:47.442Z,69.87
2022-09-22T08:51:51.504Z,69.91
2022-09-22T08:54:37.976Z,69.67
2022-09-22T08:57:13.601Z,70.26
2022-09-22T09:00:09.539Z,70.16
2022-09-22T09:02:55.786Z,70.13
2022-09-22T09:05:48.751Z,70.22
2022-09-22T09:08:44.151Z,70.54
2022-09-22T09:11:17.743Z,70.61
2022-09-22T09:14:12.275Z,70.61
2022-09-22T09:17:20.833Z,70.68
2022-09-22T09:20:00.560Z,70.75
2022-09-22T09:22:45.098Z,70.54
2022-09-22T09:25:23.829Z,70.95
2022-09-22T09:28:04.267Z,70.88
2022-09-22T09:31:05.130Z,70.81
2022-09-22T09:34:00.236Z,70.95
2022-09-22T09:36:35.770Z,71.17
2022-09-22T09:39:19.858Z,70.89
2022-09-22T09:41:51.936Z,70.77
2022-09-22T09:44:42.912Z,70.90
2022-09-22T09:47:43.613Z,71.22
2022-09-22T09:50:14.754Z,71.22
2022-09-22T09:52:45.840Z,71.70
2022-09-22T09:55:28.344Z,71.20
2022-09-22T09:58:14.218Z,71.54
2022-09-22T10:01:02.760Z,71.19
2022-09-22T10:03:37.602Z,71.10
2022-09-22T10:06:11.847Z,71.47
2022-09-22T10:08:54.314Z,71.43
2022-09-22T10:11:34.146Z,71.26
2022-09-22T10:14:05.104Z,71.52
2022-09-22T10:16:38.679Z,71.47
2022-09-22T10:19:25.643Z,71.45
2022-09-22T10:21:58.311Z,71.63
2022-09-22T10:24:35.201Z,71.82
2022-09-22T10:27:07.466Z,71.51
2022-09-22T10:29:38.629Z,71.72
2022-09-22T10:32:15.647Z,71.71
2022-09-22T10:34:54.618Z,71.66
2022-09-22T10:37:31.572Z,72.01
2022-09-22T10:40:08.027Z,71.81
2022-09-22T10:42:43.624Z,71.66
2022-09-22T10:45:21.910Z,71.87
2022-09-22T10:51:02.149Z,71.98
2022-09-22T10:53:49.616Z,71.95
2022-09-22T10:56:52.182Z,72.11
2022-09-22T10:59:55.793Z,72.15
2022-09-22T11:03:03.325Z,72.02
2022-09-22T11:06:10.627Z,71.86
2022-09-22T11:09:32.552Z,71.97
2022-09-22T11:12:29.930Z,72.42
2022-09-22T11:15:48.440Z,73.29
2022-09-22T11:18:53.273Z,73.31
2022-09-22T11:21:35.449Z,73.07
2022-09-22T11:24:34.726Z,73.04
2022-09-22T11:27:06.655Z,73.52
2022-09-22T11:29:59.799Z,73.19
2022-09-22T11:33:04.814Z,72.97
2022-09-22T11:36:14.591Z,72.99
2022-09-22T11:39:12.901Z,73.24
2022-09-22T11:42:09.315Z,73.57
2022-09-22T11:45:02.419Z,73.61
2022-09-22T11:47:51.672Z,73.52
2022-09-22T11:50:42.175Z,73.58
2022-09-22T11:53:34.759Z,73.84
2022-09-22T11:56:13.954Z,74.15
2022-09-22T11:58:47.513Z,74.35
2022-09-22T12:01:26.157Z,74.56
2022-09-22T12:04:05.886Z,74.57
2022-09-22T12:06:46.092Z,74.28
2022-09-22T12:09:44.145Z,74.72
2022-09-22T12:12:21.390Z,75.12
2022-09-22T12:15:03.334Z,75.55
2022-09-22T12:18:03.162Z,75.36
2022-09-22T12:21:06.257Z,76.72
2022-09-22T12:23:51.757Z,76.87
2022-09-22T12:26:31.769Z,76.68
2022-09-22T12:29:07.359Z,76.76
2022-09-22T12:31:43.653Z,76.98
2022-09-22T12:34:23.641Z,76.26
2022-09-22T12:37:02.410Z,76.82
2022-09-22T12:39:35.677Z,77.40
2022-09-22T12:42:20.944Z,77.70
2022-09-22T12:44:59.953Z,77.50
2022-09-22T12:47:41.335Z,77.90
2022-09-22T12:50:27.018Z,78.06
2022-09-22T12:52:57.555Z,77.31
2022-09-22T12:55:31.274Z,76.96
2022-09-22T12:58:05.585Z,76.46
2022-09-22T13:00:45.912Z,76.51
2022-09-22T13:03:28.960Z,75.91
2022-09-22T13:06:02.796Z,75.04
2022-09-22T13:08:36.349Z,74.62
2022-09-22T13:11:11.743Z,75.20
2022-09-22T13:13:51.019Z,75.47
2022-09-22T13:16:21.878Z,74.96
2022-09-22T13:18:56.665Z,75.13
2022-09-22T13:21:29.689Z,74.94
2022-09-22T13:24:01.390Z,74.71
2022-09-22T13:26:45.147Z,73.82
2022-09-22T13:29:24.965Z,73.93
2022-09-22T13:31:59.539Z,74.18
2022-09-22T13:34:37.233Z,73.75
2022-09-22T13:37:11.992Z,73.92
2022-09-22T13:39:48.081Z,74.07
2022-09-22T13:42:34.004Z,72.18
2022-09-22T13:45:17.501Z,72.77
2022-09-22T13:47:50.399Z,71.80
2022-09-22T13:50:24.259Z,71.86
2022-09-22T13:52:55.840Z,72.21
2022-09-22T13:55:33.761Z,71.87
2022-09-22T13:58:06.436Z,71.69
2022-09-22T14:01:09.059Z,71.56
2022-09-22T14:03:41.434Z,70.96
2022-09-22T14:06:39.498Z,71.06
2022-09-22T14:09:10.369Z,71.54
2022-09-22T14:11:41.862Z,71.56
2022-09-22T14:14:30.120Z,71.38
2022-09-22T14:17:00.782Z,72.69
2022-09-22T14:19:40.237Z,73.31
2022-09-22T14:22:26.412Z,74.16
2022-09-22T14:25:03.049Z,75.02
2022-09-22T14:27:35.716Z,75.13
2022-09-22T14:30:08.198Z,76.01
2022-09-22T14:32:47.144Z,76.03
2022-09-22T14:35:41.481Z,76.75
2022-09-22T14:38:18.569Z,76.75
2022-09-22T14:41:01.491Z,77.00
2022-09-22T14:43:44.705Z,77.38
2022-09-22T14:46:36.398Z,77.40
2022-09-22T14:49:38.091Z,77.28
2022-09-22T14:52:14.648Z,77.74
2022-09-22T14:54:47.423Z,77.39
2022-09-22T14:57:20.214Z,77.75
2022-09-22T15:00:14.667Z,77.87
2022-09-22T15:02:52.170Z,77.75
2022-09-22T15:05:32.878Z,78.38
2022-09-22T15:08:04.768Z,78.59
2022-09-22T15:10:37.884Z,78.80
2022-09-22T15:13:32.325Z,78.80
2022-09-22T15:16:03.395Z,79.44
2022-09-22T15:18:34.207Z,78.82
2022-09-22T15:21:31.612Z,78.42
2022-09-22T15:24:03.253Z,78.35
2022-09-22T15:26:37.666Z,78.81
2022-09-22T15:29:08.432Z,79.88
2022-09-22T15:31:39.634Z,79.17
2022-09-22T15:34:14.768Z,79.42
2022-09-22T15:36:49.518Z,79.32
2022-09-22T22:37:03.885Z,80.52
2022-09-22T22:39:35.284Z,80.30
2022-09-22T22:42:05.666Z,80.61
2022-09-22T22:44:37.847Z,80.54
2022-09-22T22:47:08.929Z,80.18
2022-09-22T22:49:39.630Z,79.94
2022-09-22T22:52:10.439Z,80.39
2022-09-22T22:54:41.378Z,79.44
2022-09-22T22:57:12.059Z,78.69
2022-09-22T22:59:42.762Z,78.97
2022-09-22T23:02:15.036Z,78.80
2022-09-22T23:04:45.839Z,78.60
2022-09-22T23:07:17.169Z,78.67
2022-09-22T23:09:48.027Z,78.91
2022-09-22T23:12:21.018Z,78.86
2022-09-22T23:14:51.931Z,78.63
2022-09-22T23:17:22.853Z,78.67
2022-09-22T23:19:53.632Z,78.91
2022-09-22T23:22:24.465Z,78.97
2022-09-22T23:24:55.081Z,78.76
2022-09-22T23:27:26.702Z,79.10
2022-09-22T23:29:59.441Z,78.94
2022-09-22T23:32:30.337Z,79.02
2022-09-22T23:35:01.045Z,78.90
2022-09-22T23:37:31.871Z,78.64
2022-09-22T23:40:02.460Z,78.60
2022-09-22T23:42:33.444Z,78.67
2022-09-22T23:45:04.426Z,78.83
2022-09-22T23:47:35.618Z,78.56
2022-09-22T23:50:06.498Z,78.63
2022-09-22T23:52:37.424Z,78.91
2022-09-22T23:55:08.773Z,78.53
2022-09-22T23:57:39.781Z,78.62
